sensor_id;sensor_type;location;lat;lon;timestamp;temperature;humidity
290;DHT22;13193;48.874;9.086;2022-12-26T00:01:25;10.90;1.00
290;DHT22;13193;48.874;9.086;2022-12-26T00:03:51;11.00;1.00
290;DHT22;13193;48.874;9.086;2022-12-26T00:06:25;11.10;1.00
290;DHT22;13193;48.874;9.086;2022-12-26T00:08:51;11.20;1.00
290;DHT22;13193;48.874;9.086;2022-12-26T00:11:18;11.30;1.00
290;DHT22;13193;48.874;9.086;2022-12-26T00:13:44;11.40;1.00
290;DHT22;13193;48.874;9.086;2022-12-26T00:16:15;11.50;1.00
290;DHT22;13193;48.874;9.086;2022-12-26T00:18:42;11.60;1.00
290;DHT22;13193;48.874;9.086;2022-12-26T00:21:09;11.60;1.00
290;DHT22;13193;48.874;9.086;2022-12-26T00:23:35;11.80;1.00
290;DHT22;13193;48.874;9.086;2022-12-26T00:26:09;11.80;1.00
290;DHT22;13193;48.874;9.086;2022-12-26T00:28:35;11.90;1.00
290;DHT22;13193;48.874;9.086;2022-12-26T00:31:06;11.90;1.00
290;DHT22;13193;48.874;9.086;2022-12-26T00:33:33;12.00;1.00
290;DHT22;13193;48.874;9.086;2022-12-26T00:36:04;12.00;1.00
290;DHT22;13193;48.874;9.086;2022-12-26T00:38:36;12.00;1.00
290;DHT22;13193;48.874;9.086;2022-12-26T00:41:02;11.90;1.00
290;DHT22;13193;48.874;9.086;2022-12-26T00:43:28;11.70;1.00
290;DHT22;13193;48.874;9.086;2022-12-26T00:45:54;11.60;1.00
290;DHT22;13193;48.874;9.086;2022-12-26T00:48:20;11.50;1.00
290;DHT22;13193;48.874;9.086;2022-12-26T00:50:45;11.40;1.00
290;DHT22;13193;48.874;9.086;2022-12-26T00:53:11;11.30;1.00
290;DHT22;13193;48.874;9.086;2022-12-26T00:55:37;11.20;1.00
290;DHT22;13193;48.874;9.086;2022-12-26T00:58:03;11.10;1.00
290;DHT22;13193;48.874;9.086;2022-12-26T01:00:29;11.00;1.00
290;DHT22;13193;48.874;9.086;2022-12-26T01:02:54;10.90;1.00
290;DHT22;13193;48.874;9.086;2022-12-26T01:05:20;10.90;1.00
290;DHT22;13193;48.874;9.086;2022-12-26T01:07:45;10.90;1.00
290;DHT22;13193;48.874;9.086;2022-12-26T01:10:12;10.90;1.00
290;DHT22;13193;48.874;9.086;2022-12-26T01:12:38;10.80;1.00
290;DHT22;13193;48.874;9.086;2022-12-26T01:15:05;10.80;1.00
290;DHT22;13193;48.874;9.086;2022-12-26T01:17:31;10.70;1.00
290;DHT22;13193;48.874;9.086;2022-12-26T01:19:57;10.60;1.00
290;DHT22;13193;48.874;9.086;2022-12-26T01:22:24;10.50;1.00
290;DHT22;13193;48.874;9.086;2022-12-26T01:24:58;10.40;1.00
290;DHT22;13193;48.874;9.086;2022-12-26T01:27:25;10.40;1.00
290;DHT22;13193;48.874;9.086;2022-12-26T01:29:51;10.30;1.00
290;DHT22;13193;48.874;9.086;2022-12-26T01:32:20;10.20;1.00
290;DHT22;13193;48.874;9.086;2022-12-26T01:34:46;10.10;1.00
290;DHT22;13193;48.874;9.086;2022-12-26T01:37:12;10.00;1.00
290;DHT22;13193;48.874;9.086;2022-12-26T01:39:38;10.00;1.00
290;DHT22;13193;48.874;9.086;2022-12-26T01:42:14;9.90;1.00
290;DHT22;13193;48.874;9.086;2022-12-26T01:49:58;9.70;1.00
290;DHT22;13193;48.874;9.086;2022-12-26T01:52:40;9.70;1.00
290;DHT22;13193;48.874;9.086;2022-12-26T01:55:10;9.60;1.00
290;DHT22;13193;48.874;9.086;2022-12-26T01:57:44;9.60;1.00
290;DHT22;13193;48.874;9.086;2022-12-26T02:00:11;9.60;1.00
290;DHT22;13193;48.874;9.086;2022-12-26T02:02:37;9.60;1.00
290;DHT22;13193;48.874;9.086;2022-12-26T02:05:23;9.60;1.00
290;DHT22;13193;48.874;9.086;2022-12-26T02:10:31;9.70;1.00
290;DHT22;13193;48.874;9.086;2022-12-26T02:12:58;9.70;1.00
290;DHT22;13193;48.874;9.086;2022-12-26T02:15:24;9.70;1.00
290;DHT22;13193;48.874;9.086;2022-12-26T02:17:49;9.70;1.00
290;DHT22;13193;48.874;9.086;2022-12-26T02:20:29;9.60;1.00
290;DHT22;13193;48.874;9.086;2022-12-26T02:31:33;9.30;1.00
290;DHT22;13193;48.874;9.086;2022-12-26T02:34:09;9.40;1.00
290;DHT22;13193;48.874;9.086;2022-12-26T02:37:19;9.40;1.00
290;DHT22;13193;48.874;9.086;2022-12-26T02:45:28;9.80;1.00
290;DHT22;13193;48.874;9.086;2022-12-26T02:48:18;9.80;1.00
290;DHT22;13193;48.874;9.086;2022-12-26T02:57:19;9.90;1.00
290;DHT22;13193;48.874;9.086;2022-12-26T03:00:13;9.90;1.00
290;DHT22;13193;48.874;9.086;2022-12-26T03:05:53;9.90;1.00
290;DHT22;13193;48.874;9.086;2022-12-26T03:08:54;9.90;1.00
290;DHT22;13193;48.874;9.086;2022-12-26T03:11:44;9.90;1.00
290;DHT22;13193;48.874;9.086;2022-12-26T03:14:46;9.80;1.00
290;DHT22;13193;48.874;9.086;2022-12-26T03:17:41;9.80;1.00
290;DHT22;13193;48.874;9.086;2022-12-26T03:20:35;9.90;1.00
290;DHT22;13193;48.874;9.086;2022-12-26T03:23:03;9.80;1.00
290;DHT22;13193;48.874;9.086;2022-12-26T03:26:02;9.90;1.00
290;DHT22;13193;48.874;9.086;2022-12-26T03:28:45;9.80;1.00
290;DHT22;13193;48.874;9.086;2022-12-26T03:31:13;9.80;1.00
290;DHT22;13193;48.874;9.086;2022-12-26T03:33:44;9.80;1.00
290;DHT22;13193;48.874;9.086;2022-12-26T03:48:53;9.70;1.00
290;DHT22;13193;48.874;9.086;2022-12-26T03:51:46;9.90;1.00
290;DHT22;13193;48.874;9.086;2022-12-26T03:54:40;10.00;1.00
290;DHT22;13193;48.874;9.086;2022-12-26T03:57:32;10.10;1.00
290;DHT22;13193;48.874;9.086;2022-12-26T04:00:19;10.20;1.00
290;DHT22;13193;48.874;9.086;2022-12-26T04:03:09;10.40;1.00
290;DHT22;13193;48.874;9.086;2022-12-26T04:05:57;10.50;1.00
290;DHT22;13193;48.874;9.086;2022-12-26T04:08:56;10.60;1.00
290;DHT22;13193;48.874;9.086;2022-12-26T04:11:44;10.80;1.00
290;DHT22;13193;48.874;9.086;2022-12-26T04:17:53;11.00;1.00
290;DHT22;13193;48.874;9.086;2022-12-26T04:23:42;11.20;1.00
290;DHT22;13193;48.874;9.086;2022-12-26T04:26:33;11.20;1.00
290;DHT22;13193;48.874;9.086;2022-12-26T04:29:20;11.40;1.00
290;DHT22;13193;48.874;9.086;2022-12-26T04:32:14;11.40;1.00
290;DHT22;13193;48.874;9.086;2022-12-26T04:35:14;11.40;1.00
290;DHT22;13193;48.874;9.086;2022-12-26T04:38:02;11.50;1.00
290;DHT22;13193;48.874;9.086;2022-12-26T04:40:51;11.50;1.00
290;DHT22;13193;48.874;9.086;2022-12-26T04:43:38;11.40;1.00
290;DHT22;13193;48.874;9.086;2022-12-26T04:46:24;11.50;1.00
290;DHT22;13193;48.874;9.086;2022-12-26T04:48:52;11.50;1.00
290;DHT22;13193;48.874;9.086;2022-12-26T04:51:37;11.50;1.00
290;DHT22;13193;48.874;9.086;2022-12-26T04:54:04;11.60;1.00
290;DHT22;13193;48.874;9.086;2022-12-26T04:56:29;11.50;1.00
290;DHT22;13193;48.874;9.086;2022-12-26T04:58:55;11.50;1.00
290;DHT22;13193;48.874;9.086;2022-12-26T05:01:21;11.60;1.00
290;DHT22;13193;48.874;9.086;2022-12-26T05:04:05;11.60;1.00
290;DHT22;13193;48.874;9.086;2022-12-26T05:06:49;11.60;1.00
290;DHT22;13193;48.874;9.086;2022-12-26T05:09:34;11.60;1.00
290;DHT22;13193;48.874;9.086;2022-12-26T05:12:01;11.70;1.00
290;DHT22;13193;48.874;9.086;2022-12-26T05:14:27;11.70;1.00
290;DHT22;13193;48.874;9.086;2022-12-26T05:16:53;11.70;1.00
290;DHT22;13193;48.874;9.086;2022-12-26T05:19:37;11.80;1.00
290;DHT22;13193;48.874;9.086;2022-12-26T05:22:22;11.80;1.00
290;DHT22;13193;48.874;9.086;2022-12-26T05:25:15;11.90;1.00
290;DHT22;13193;48.874;9.086;2022-12-26T05:28:00;11.90;1.00
290;DHT22;13193;48.874;9.086;2022-12-26T05:30:44;12.00;1.00
290;DHT22;13193;48.874;9.086;2022-12-26T05:33:10;12.00;1.00
290;DHT22;13193;48.874;9.086;2022-12-26T05:35:54;12.00;1.00
290;DHT22;13193;48.874;9.086;2022-12-26T05:38:19;12.00;1.00
290;DHT22;13193;48.874;9.086;2022-12-26T05:40:45;12.00;1.00
290;DHT22;13193;48.874;9.086;2022-12-26T05:43:10;12.00;1.00
290;DHT22;13193;48.874;9.086;2022-12-26T05:45:36;12.00;1.00
290;DHT22;13193;48.874;9.086;2022-12-26T05:48:02;12.00;1.00
290;DHT22;13193;48.874;9.086;2022-12-26T05:50:28;12.00;1.00
290;DHT22;13193;48.874;9.086;2022-12-26T05:52:56;12.00;1.00
290;DHT22;13193;48.874;9.086;2022-12-26T05:55:22;12.00;1.00
290;DHT22;13193;48.874;9.086;2022-12-26T05:57:49;12.00;1.00
290;DHT22;13193;48.874;9.086;2022-12-26T06:00:15;12.00;1.00
290;DHT22;13193;48.874;9.086;2022-12-26T06:02:40;12.00;1.00
290;DHT22;13193;48.874;9.086;2022-12-26T06:05:06;11.90;1.00
290;DHT22;13193;48.874;9.086;2022-12-26T06:07:32;11.90;1.00
290;DHT22;13193;48.874;9.086;2022-12-26T06:09:57;11.90;1.00
290;DHT22;13193;48.874;9.086;2022-12-26T06:12:23;12.00;1.00
290;DHT22;13193;48.874;9.086;2022-12-26T06:14:49;12.00;1.00
290;DHT22;13193;48.874;9.086;2022-12-26T06:17:14;12.00;1.00
290;DHT22;13193;48.874;9.086;2022-12-26T06:19:40;11.90;1.00
290;DHT22;13193;48.874;9.086;2022-12-26T06:22:05;11.80;1.00
290;DHT22;13193;48.874;9.086;2022-12-26T06:24:31;11.80;1.00
290;DHT22;13193;48.874;9.086;2022-12-26T06:26:56;11.80;1.00
290;DHT22;13193;48.874;9.086;2022-12-26T06:29:22;11.80;1.00
290;DHT22;13193;48.874;9.086;2022-12-26T06:31:48;11.80;1.00
290;DHT22;13193;48.874;9.086;2022-12-26T06:34:13;11.80;1.00
290;DHT22;13193;48.874;9.086;2022-12-26T06:36:39;11.80;1.00
290;DHT22;13193;48.874;9.086;2022-12-26T06:39:04;11.80;1.00
290;DHT22;13193;48.874;9.086;2022-12-26T06:41:30;11.80;1.00
290;DHT22;13193;48.874;9.086;2022-12-26T06:43:56;11.80;1.00
290;DHT22;13193;48.874;9.086;2022-12-26T06:46:23;11.80;1.00
290;DHT22;13193;48.874;9.086;2022-12-26T06:48:50;11.80;1.00
290;DHT22;13193;48.874;9.086;2022-12-26T06:51:21;11.80;1.00
290;DHT22;13193;48.874;9.086;2022-12-26T06:53:48;11.80;1.00
290;DHT22;13193;48.874;9.086;2022-12-26T06:56:17;11.80;1.00
290;DHT22;13193;48.874;9.086;2022-12-26T06:58:43;11.80;1.00
290;DHT22;13193;48.874;9.086;2022-12-26T07:01:15;11.90;1.00
290;DHT22;13193;48.874;9.086;2022-12-26T07:03:42;11.90;1.00
290;DHT22;13193;48.874;9.086;2022-12-26T07:06:20;11.90;1.00
290;DHT22;13193;48.874;9.086;2022-12-26T07:08:46;11.90;1.00
290;DHT22;13193;48.874;9.086;2022-12-26T07:11:21;12.00;1.00
290;DHT22;13193;48.874;9.086;2022-12-26T07:13:47;12.00;1.00
290;DHT22;13193;48.874;9.086;2022-12-26T07:16:13;12.00;1.00
290;DHT22;13193;48.874;9.086;2022-12-26T07:18:38;12.00;1.00
290;DHT22;13193;48.874;9.086;2022-12-26T07:21:09;12.00;1.00
290;DHT22;13193;48.874;9.086;2022-12-26T07:23:35;12.00;1.00
290;DHT22;13193;48.874;9.086;2022-12-26T07:26:01;12.00;1.00
290;DHT22;13193;48.874;9.086;2022-12-26T07:28:27;12.00;1.00
290;DHT22;13193;48.874;9.086;2022-12-26T07:30:53;12.00;1.00
290;DHT22;13193;48.874;9.086;2022-12-26T07:33:19;12.00;1.00
290;DHT22;13193;48.874;9.086;2022-12-26T07:35:45;12.00;1.00
290;DHT22;13193;48.874;9.086;2022-12-26T07:38:11;12.00;1.00
290;DHT22;13193;48.874;9.086;2022-12-26T07:40:37;11.90;1.00
290;DHT22;13193;48.874;9.086;2022-12-26T07:43:03;12.00;1.00
290;DHT22;13193;48.874;9.086;2022-12-26T07:45:28;12.00;1.00
290;DHT22;13193;48.874;9.086;2022-12-26T07:47:58;12.00;1.00
290;DHT22;13193;48.874;9.086;2022-12-26T07:50:25;12.10;1.00
290;DHT22;13193;48.874;9.086;2022-12-26T07:52:51;12.10;1.00
290;DHT22;13193;48.874;9.086;2022-12-26T07:55:17;12.00;1.00
290;DHT22;13193;48.874;9.086;2022-12-26T07:57:43;12.00;1.00
290;DHT22;13193;48.874;9.086;2022-12-26T08:00:09;12.00;1.00
290;DHT22;13193;48.874;9.086;2022-12-26T08:02:34;11.90;1.00
290;DHT22;13193;48.874;9.086;2022-12-26T08:05:00;11.90;1.00
290;DHT22;13193;48.874;9.086;2022-12-26T08:07:26;11.90;1.00
290;DHT22;13193;48.874;9.086;2022-12-26T08:09:51;11.90;1.00
290;DHT22;13193;48.874;9.086;2022-12-26T08:12:17;11.90;1.00
290;DHT22;13193;48.874;9.086;2022-12-26T08:14:46;11.90;1.00
290;DHT22;13193;48.874;9.086;2022-12-26T08:17:12;11.90;1.00
290;DHT22;13193;48.874;9.086;2022-12-26T08:19:38;11.90;1.00
290;DHT22;13193;48.874;9.086;2022-12-26T08:22:04;11.90;1.00
290;DHT22;13193;48.874;9.086;2022-12-26T08:24:30;11.90;1.00
290;DHT22;13193;48.874;9.086;2022-12-26T08:26:56;11.90;1.00
290;DHT22;13193;48.874;9.086;2022-12-26T08:29:21;11.90;1.00
290;DHT22;13193;48.874;9.086;2022-12-26T08:31:47;11.90;1.00
290;DHT22;13193;48.874;9.086;2022-12-26T08:34:13;11.90;1.00
290;DHT22;13193;48.874;9.086;2022-12-26T08:36:38;12.00;1.00
290;DHT22;13193;48.874;9.086;2022-12-26T08:39:04;12.00;1.00
290;DHT22;13193;48.874;9.086;2022-12-26T08:41:30;11.90;1.00
290;DHT22;13193;48.874;9.086;2022-12-26T08:43:57;11.90;1.00
290;DHT22;13193;48.874;9.086;2022-12-26T08:46:22;11.90;1.00
290;DHT22;13193;48.874;9.086;2022-12-26T08:48:49;12.00;1.00
290;DHT22;13193;48.874;9.086;2022-12-26T08:53:42;12.10;1.00
290;DHT22;13193;48.874;9.086;2022-12-26T08:56:10;12.00;1.00
290;DHT22;13193;48.874;9.086;2022-12-26T08:58:36;12.00;1.00
290;DHT22;13193;48.874;9.086;2022-12-26T09:01:07;12.10;1.00
290;DHT22;13193;48.874;9.086;2022-12-26T09:03:33;12.00;1.00
290;DHT22;13193;48.874;9.086;2022-12-26T09:05:59;11.90;1.00
290;DHT22;13193;48.874;9.086;2022-12-26T09:08:28;12.00;1.00
290;DHT22;13193;48.874;9.086;2022-12-26T09:10:55;12.00;1.00
290;DHT22;13193;48.874;9.086;2022-12-26T09:13:25;11.90;1.00
290;DHT22;13193;48.874;9.086;2022-12-26T09:15:51;12.00;1.00
290;DHT22;13193;48.874;9.086;2022-12-26T09:18:16;12.00;1.00
290;DHT22;13193;48.874;9.086;2022-12-26T09:20:42;12.00;1.00
290;DHT22;13193;48.874;9.086;2022-12-26T09:23:08;12.10;1.00
290;DHT22;13193;48.874;9.086;2022-12-26T09:25:35;12.00;1.00
290;DHT22;13193;48.874;9.086;2022-12-26T09:28:01;12.00;1.00
290;DHT22;13193;48.874;9.086;2022-12-26T09:30:27;12.00;1.00
290;DHT22;13193;48.874;9.086;2022-12-26T09:32:52;12.00;1.00
290;DHT22;13193;48.874;9.086;2022-12-26T09:35:18;12.00;1.00
290;DHT22;13193;48.874;9.086;2022-12-26T09:37:44;12.00;1.00
290;DHT22;13193;48.874;9.086;2022-12-26T09:40:20;11.90;1.00
290;DHT22;13193;48.874;9.086;2022-12-26T09:43:13;11.90;1.00
290;DHT22;13193;48.874;9.086;2022-12-26T09:45:54;11.90;1.00
290;DHT22;13193;48.874;9.086;2022-12-26T09:48:31;11.90;1.00
290;DHT22;13193;48.874;9.086;2022-12-26T09:50:59;11.90;1.00
290;DHT22;13193;48.874;9.086;2022-12-26T09:53:30;11.80;1.00
290;DHT22;13193;48.874;9.086;2022-12-26T09:56:02;11.80;1.00
290;DHT22;13193;48.874;9.086;2022-12-26T09:59:15;11.90;1.00
290;DHT22;13193;48.874;9.086;2022-12-26T10:01:21;12.00;1.00
290;DHT22;13193;48.874;9.086;2022-12-26T10:03:54;12.00;1.00
290;DHT22;13193;48.874;9.086;2022-12-26T10:06:25;12.00;1.00
290;DHT22;13193;48.874;9.086;2022-12-26T10:14:44;11.90;1.00
290;DHT22;13193;48.874;9.086;2022-12-26T10:25:55;11.90;1.00
290;DHT22;13193;48.874;9.086;2022-12-26T10:28:37;11.80;1.00
290;DHT22;13193;48.874;9.086;2022-12-26T10:31:17;11.80;1.00
290;DHT22;13193;48.874;9.086;2022-12-26T10:33:52;12.00;1.00
290;DHT22;13193;48.874;9.086;2022-12-26T10:36:41;12.00;1.00
290;DHT22;13193;48.874;9.086;2022-12-26T10:44:40;12.10;1.00
290;DHT22;13193;48.874;9.086;2022-12-26T10:49:31;12.10;1.00
290;DHT22;13193;48.874;9.086;2022-12-26T10:51:59;12.10;1.00
290;DHT22;13193;48.874;9.086;2022-12-26T10:54:27;12.00;1.00
290;DHT22;13193;48.874;9.086;2022-12-26T10:56:55;12.00;1.00
290;DHT22;13193;48.874;9.086;2022-12-26T10:59:42;12.00;1.00
290;DHT22;13193;48.874;9.086;2022-12-26T11:05:12;12.00;1.00
290;DHT22;13193;48.874;9.086;2022-12-26T11:07:52;12.00;1.00
290;DHT22;13193;48.874;9.086;2022-12-26T11:10:25;12.10;1.00
290;DHT22;13193;48.874;9.086;2022-12-26T11:12:54;12.10;1.00
290;DHT22;13193;48.874;9.086;2022-12-26T11:17:52;12.10;1.00
290;DHT22;13193;48.874;9.086;2022-12-26T11:20:23;12.20;1.00
290;DHT22;13193;48.874;9.086;2022-12-26T11:22:49;12.20;1.00
290;DHT22;13193;48.874;9.086;2022-12-26T11:25:22;12.30;1.00
290;DHT22;13193;48.874;9.086;2022-12-26T11:27:56;12.30;1.00
290;DHT22;13193;48.874;9.086;2022-12-26T11:30:30;12.40;1.00
290;DHT22;13193;48.874;9.086;2022-12-26T11:33:24;12.40;1.00
290;DHT22;13193;48.874;9.086;2022-12-26T11:38:53;12.40;1.00
290;DHT22;13193;48.874;9.086;2022-12-26T11:44:25;12.50;1.00
290;DHT22;13193;48.874;9.086;2022-12-26T11:49:29;12.60;1.00
290;DHT22;13193;48.874;9.086;2022-12-26T11:51:57;12.70;1.00
290;DHT22;13193;48.874;9.086;2022-12-26T11:54:25;12.80;1.00
290;DHT22;13193;48.874;9.086;2022-12-26T11:59:25;13.00;1.00
290;DHT22;13193;48.874;9.086;2022-12-26T12:02:26;13.00;1.00
290;DHT22;13193;48.874;9.086;2022-12-26T12:04:55;13.10;1.00
290;DHT22;13193;48.874;9.086;2022-12-26T12:13:14;13.20;1.00
290;DHT22;13193;48.874;9.086;2022-12-26T12:19:11;13.50;1.00
290;DHT22;13193;48.874;9.086;2022-12-26T12:21:58;13.50;1.00
290;DHT22;13193;48.874;9.086;2022-12-26T12:27:25;13.70;1.00
290;DHT22;13193;48.874;9.086;2022-12-26T12:38:39;13.70;1.00
290;DHT22;13193;48.874;9.086;2022-12-26T12:44:13;13.50;1.00
290;DHT22;13193;48.874;9.086;2022-12-26T12:50:07;13.20;1.00
290;DHT22;13193;48.874;9.086;2022-12-26T12:53:02;13.00;1.00
290;DHT22;13193;48.874;9.086;2022-12-26T13:01:02;12.80;1.00
290;DHT22;13193;48.874;9.086;2022-12-26T13:06:12;12.80;1.00
290;DHT22;13193;48.874;9.086;2022-12-26T13:11:24;12.70;1.00
290;DHT22;13193;48.874;9.086;2022-12-26T13:16:43;12.60;1.00
290;DHT22;13193;48.874;9.086;2022-12-26T13:19:46;12.50;1.00
290;DHT22;13193;48.874;9.086;2022-12-26T13:23:03;12.50;1.00
290;DHT22;13193;48.874;9.086;2022-12-26T13:25:36;12.40;1.00
290;DHT22;13193;48.874;9.086;2022-12-26T13:28:12;12.40;1.00
290;DHT22;13193;48.874;9.086;2022-12-26T13:30:41;12.50;1.00
290;DHT22;13193;48.874;9.086;2022-12-26T13:33:12;12.50;1.00
290;DHT22;13193;48.874;9.086;2022-12-26T13:35:58;12.60;1.00
290;DHT22;13193;48.874;9.086;2022-12-26T13:38:25;12.60;1.00
290;DHT22;13193;48.874;9.086;2022-12-26T13:41:15;12.70;1.00
290;DHT22;13193;48.874;9.086;2022-12-26T13:44:25;12.70;1.00
290;DHT22;13193;48.874;9.086;2022-12-26T13:49:38;12.70;1.00
290;DHT22;13193;48.874;9.086;2022-12-26T13:57:40;12.70;1.00
290;DHT22;13193;48.874;9.086;2022-12-26T14:00:22;12.70;1.00
290;DHT22;13193;48.874;9.086;2022-12-26T14:03:00;12.70;1.00
290;DHT22;13193;48.874;9.086;2022-12-26T14:06:08;12.80;1.00
290;DHT22;13193;48.874;9.086;2022-12-26T14:20:11;12.80;1.00
290;DHT22;13193;48.874;9.086;2022-12-26T14:28:10;12.70;1.00
290;DHT22;13193;48.874;9.086;2022-12-26T14:45:02;12.40;1.00
290;DHT22;13193;48.874;9.086;2022-12-26T14:47:39;12.40;1.00
290;DHT22;13193;48.874;9.086;2022-12-26T15:00:55;12.30;1.00
290;DHT22;13193;48.874;9.086;2022-12-26T15:12:12;12.10;1.00
290;DHT22;13193;48.874;9.086;2022-12-26T15:20:33;12.00;1.00
290;DHT22;13193;48.874;9.086;2022-12-26T15:26:23;11.90;1.00
290;DHT22;13193;48.874;9.086;2022-12-26T15:34:48;11.80;1.00
290;DHT22;13193;48.874;9.086;2022-12-26T15:37:38;11.80;1.00
290;DHT22;13193;48.874;9.086;2022-12-26T15:40:36;11.80;1.00
290;DHT22;13193;48.874;9.086;2022-12-26T15:46:11;11.80;1.00
290;DHT22;13193;48.874;9.086;2022-12-26T16:04:57;11.60;1.00
290;DHT22;13193;48.874;9.086;2022-12-26T16:07:40;11.60;1.00
290;DHT22;13193;48.874;9.086;2022-12-26T16:13:17;11.70;1.00
290;DHT22;13193;48.874;9.086;2022-12-26T16:15:48;11.70;1.00
290;DHT22;13193;48.874;9.086;2022-12-26T16:18:17;11.70;1.00
290;DHT22;13193;48.874;9.086;2022-12-26T16:20:44;11.70;1.00
290;DHT22;13193;48.874;9.086;2022-12-26T16:23:36;11.70;1.00
290;DHT22;13193;48.874;9.086;2022-12-26T16:26:02;11.70;1.00
290;DHT22;13193;48.874;9.086;2022-12-26T16:28:38;11.60;1.00
290;DHT22;13193;48.874;9.086;2022-12-26T16:31:05;11.60;1.00
290;DHT22;13193;48.874;9.086;2022-12-26T16:33:37;11.60;1.00
290;DHT22;13193;48.874;9.086;2022-12-26T16:36:04;11.60;1.00
290;DHT22;13193;48.874;9.086;2022-12-26T16:38:31;11.60;1.00
290;DHT22;13193;48.874;9.086;2022-12-26T16:40:57;11.70;1.00
290;DHT22;13193;48.874;9.086;2022-12-26T16:43:29;11.60;1.00
290;DHT22;13193;48.874;9.086;2022-12-26T16:45:59;11.60;1.00
290;DHT22;13193;48.874;9.086;2022-12-26T16:48:29;11.60;1.00
290;DHT22;13193;48.874;9.086;2022-12-26T16:51:00;11.50;1.00
290;DHT22;13193;48.874;9.086;2022-12-26T16:56:24;11.60;1.00
290;DHT22;13193;48.874;9.086;2022-12-26T16:59:02;11.50;1.00
290;DHT22;13193;48.874;9.086;2022-12-26T17:01:28;11.50;1.00
290;DHT22;13193;48.874;9.086;2022-12-26T17:03:58;11.50;1.00
290;DHT22;13193;48.874;9.086;2022-12-26T17:06:33;11.50;1.00
290;DHT22;13193;48.874;9.086;2022-12-26T17:09:08;11.40;1.00
290;DHT22;13193;48.874;9.086;2022-12-26T17:11:38;11.30;1.00
290;DHT22;13193;48.874;9.086;2022-12-26T17:14:06;11.30;1.00
290;DHT22;13193;48.874;9.086;2022-12-26T17:16:37;11.30;1.00
290;DHT22;13193;48.874;9.086;2022-12-26T17:19:18;11.40;1.00
290;DHT22;13193;48.874;9.086;2022-12-26T17:24:48;11.30;1.00
290;DHT22;13193;48.874;9.086;2022-12-26T17:27:25;11.20;1.00
290;DHT22;13193;48.874;9.086;2022-12-26T17:34:51;11.20;1.00
290;DHT22;13193;48.874;9.086;2022-12-26T17:37:21;11.20;1.00
290;DHT22;13193;48.874;9.086;2022-12-26T17:42:47;11.10;1.00
290;DHT22;13193;48.874;9.086;2022-12-26T17:45:20;11.00;1.00
290;DHT22;13193;48.874;9.086;2022-12-26T17:47:46;11.10;1.00
290;DHT22;13193;48.874;9.086;2022-12-26T17:50:12;11.10;1.00
290;DHT22;13193;48.874;9.086;2022-12-26T17:52:38;11.10;1.00
290;DHT22;13193;48.874;9.086;2022-12-26T17:55:14;10.90;1.00
290;DHT22;13193;48.874;9.086;2022-12-26T17:57:40;11.10;1.00
290;DHT22;13193;48.874;9.086;2022-12-26T18:00:17;11.10;1.00
290;DHT22;13193;48.874;9.086;2022-12-26T18:02:43;10.90;1.00
290;DHT22;13193;48.874;9.086;2022-12-26T18:05:09;10.90;1.00
290;DHT22;13193;48.874;9.086;2022-12-26T18:07:34;10.90;1.00
290;DHT22;13193;48.874;9.086;2022-12-26T18:10:00;10.90;1.00
290;DHT22;13193;48.874;9.086;2022-12-26T18:12:26;10.90;1.00
290;DHT22;13193;48.874;9.086;2022-12-26T18:14:52;10.80;1.00
290;DHT22;13193;48.874;9.086;2022-12-26T18:17:18;10.80;1.00
290;DHT22;13193;48.874;9.086;2022-12-26T18:19:44;10.90;1.00
290;DHT22;13193;48.874;9.086;2022-12-26T18:22:15;10.90;1.00
290;DHT22;13193;48.874;9.086;2022-12-26T18:24:41;10.90;1.00
290;DHT22;13193;48.874;9.086;2022-12-26T18:27:11;10.90;1.00
290;DHT22;13193;48.874;9.086;2022-12-26T18:29:40;10.90;1.00
290;DHT22;13193;48.874;9.086;2022-12-26T18:32:23;10.80;1.00
290;DHT22;13193;48.874;9.086;2022-12-26T18:34:49;10.80;1.00
290;DHT22;13193;48.874;9.086;2022-12-26T18:37:14;10.80;1.00
290;DHT22;13193;48.874;9.086;2022-12-26T18:39:40;10.80;1.00
290;DHT22;13193;48.874;9.086;2022-12-26T18:42:09;10.80;1.00
290;DHT22;13193;48.874;9.086;2022-12-26T18:44:35;10.70;1.00
290;DHT22;13193;48.874;9.086;2022-12-26T18:47:00;10.70;1.00
290;DHT22;13193;48.874;9.086;2022-12-26T18:49:26;10.50;1.00
290;DHT22;13193;48.874;9.086;2022-12-26T18:51:52;10.50;1.00
290;DHT22;13193;48.874;9.086;2022-12-26T18:54:18;10.40;1.00
290;DHT22;13193;48.874;9.086;2022-12-26T18:56:43;10.30;1.00
290;DHT22;13193;48.874;9.086;2022-12-26T18:59:10;10.20;1.00
290;DHT22;13193;48.874;9.086;2022-12-26T19:01:35;10.10;1.00
290;DHT22;13193;48.874;9.086;2022-12-26T19:04:01;10.00;1.00
290;DHT22;13193;48.874;9.086;2022-12-26T19:06:28;9.90;1.00
290;DHT22;13193;48.874;9.086;2022-12-26T19:08:54;9.90;1.00
290;DHT22;13193;48.874;9.086;2022-12-26T19:11:21;9.90;1.00
290;DHT22;13193;48.874;9.086;2022-12-26T19:13:46;9.90;1.00
290;DHT22;13193;48.874;9.086;2022-12-26T19:16:12;10.00;1.00
290;DHT22;13193;48.874;9.086;2022-12-26T19:18:38;9.90;1.00
290;DHT22;13193;48.874;9.086;2022-12-26T19:21:04;10.00;1.00
290;DHT22;13193;48.874;9.086;2022-12-26T19:23:29;10.10;1.00
290;DHT22;13193;48.874;9.086;2022-12-26T19:25:55;9.90;1.00
290;DHT22;13193;48.874;9.086;2022-12-26T19:28:21;10.20;1.00
290;DHT22;13193;48.874;9.086;2022-12-26T19:30:46;10.20;1.00
290;DHT22;13193;48.874;9.086;2022-12-26T19:33:12;10.10;1.00
290;DHT22;13193;48.874;9.086;2022-12-26T19:35:37;10.10;1.00
290;DHT22;13193;48.874;9.086;2022-12-26T19:38:03;10.10;1.00
290;DHT22;13193;48.874;9.086;2022-12-26T19:40:29;10.00;1.00
290;DHT22;13193;48.874;9.086;2022-12-26T19:42:54;9.90;1.00
290;DHT22;13193;48.874;9.086;2022-12-26T19:45:20;10.00;1.00
290;DHT22;13193;48.874;9.086;2022-12-26T19:47:46;9.80;1.00
290;DHT22;13193;48.874;9.086;2022-12-26T19:50:11;9.80;1.00
290;DHT22;13193;48.874;9.086;2022-12-26T19:52:37;10.20;1.00
290;DHT22;13193;48.874;9.086;2022-12-26T19:55:05;9.70;1.00
290;DHT22;13193;48.874;9.086;2022-12-26T19:57:31;9.70;1.00
290;DHT22;13193;48.874;9.086;2022-12-26T19:59:56;9.70;1.00
290;DHT22;13193;48.874;9.086;2022-12-26T20:02:22;9.60;1.00
290;DHT22;13193;48.874;9.086;2022-12-26T20:04:48;10.00;1.00
290;DHT22;13193;48.874;9.086;2022-12-26T20:07:13;9.50;1.00
290;DHT22;13193;48.874;9.086;2022-12-26T20:09:39;9.50;1.00
290;DHT22;13193;48.874;9.086;2022-12-26T20:12:05;9.50;1.00
290;DHT22;13193;48.874;9.086;2022-12-26T20:14:31;9.50;1.00
290;DHT22;13193;48.874;9.086;2022-12-26T20:16:58;9.20;1.00
290;DHT22;13193;48.874;9.086;2022-12-26T20:19:25;9.30;1.00
290;DHT22;13193;48.874;9.086;2022-12-26T20:21:51;9.30;1.00
290;DHT22;13193;48.874;9.086;2022-12-26T20:24:18;9.20;1.00
290;DHT22;13193;48.874;9.086;2022-12-26T20:26:46;9.20;1.00
290;DHT22;13193;48.874;9.086;2022-12-26T20:29:12;9.20;1.00
290;DHT22;13193;48.874;9.086;2022-12-26T20:31:38;9.20;1.00
290;DHT22;13193;48.874;9.086;2022-12-26T20:34:04;9.20;1.00
290;DHT22;13193;48.874;9.086;2022-12-26T20:36:32;9.30;1.00
290;DHT22;13193;48.874;9.086;2022-12-26T20:39:01;9.30;1.00
290;DHT22;13193;48.874;9.086;2022-12-26T20:41:28;9.30;1.00
290;DHT22;13193;48.874;9.086;2022-12-26T20:43:54;9.30;1.00
290;DHT22;13193;48.874;9.086;2022-12-26T20:46:23;9.30;1.00
290;DHT22;13193;48.874;9.086;2022-12-26T20:48:49;9.20;1.00
290;DHT22;13193;48.874;9.086;2022-12-26T20:51:18;9.20;1.00